createdAt,value
2018-04-01T00:00:44.152Z,71
2018-04-01T00:06:09.333Z,71
2018-04-01T00:10:44.579Z,72
2018-04-01T00:15:43.754Z,72
2018-04-01T00:20:55.865Z,72
2018-04-01T00:25:44.014Z,72
2018-04-01T00:30:45.251Z,72
2018-04-01T00:36:12.859Z,72
2018-04-01T00:40:46.566Z,73
2018-04-01T00:45:45.087Z,73
2018-04-01T00:50:52.523Z,73
2018-04-01T00:55:45.997Z,73
2018-04-01T01:00:47.189Z,73
2018-04-01T01:05:54.807Z,74
2018-04-01T01:10:44.012Z,74
2018-04-01T01:15:44.534Z,74
2018-04-01T01:20:45.830Z,74
2018-04-01T01:25:44.283Z,74
2018-04-01T01:30:56.978Z,74
2018-04-01T01:35:49.127Z,75
2018-04-01T01:40:43.566Z,75
2018-04-01T01:45:43.833Z,75
2018-04-01T01:50:46.977Z,75
2018-04-01T01:55:43.689Z,75
2018-04-01T02:00:44.083Z,75
2018-04-01T02:06:58.641Z,75
2018-04-01T02:11:54.570Z,75
2018-04-01T02:15:47.650Z,75
2018-04-01T02:21:08.377Z,75
2018-04-01T02:25:54.986Z,75
2018-04-01T02:30:44.295Z,75
2018-04-01T02:35:49.715Z,75
2018-04-01T02:40:43.978Z,75
2018-04-01T02:45:43.493Z,75
2018-04-01T02:50:45.298Z,75
2018-04-01T02:55:44.695Z,75
2018-04-01T03:00:43.352Z,75
2018-04-01T03:05:49.499Z,75
2018-04-01T03:10:44.331Z,74
2018-04-01T03:15:44.782Z,74
2018-04-01T03:20:43.868Z,74
2018-04-01T03:25:44.330Z,74
2018-04-01T03:30:43.415Z,74
2018-04-01T03:35:45.924Z,74
2018-04-01T03:40:50.796Z,74
2018-04-01T03:46:09.128Z,74
2018-04-01T03:51:27.243Z,74
2018-04-01T03:55:45.960Z,74
2018-04-01T04:00:48.321Z,74
2018-04-01T04:05:45.659Z,74
2018-04-01T04:10:47.482Z,75
2018-04-01T04:15:45.264Z,74
2018-04-01T04:21:08.722Z,74
2018-04-01T04:25:46.678Z,74
2018-04-01T04:31:13.001Z,74
2018-04-01T04:35:43.543Z,74
2018-04-01T04:40:50.452Z,74
2018-04-01T04:45:44.261Z,74
2018-04-01T04:50:45.003Z,74
2018-04-01T04:55:45.703Z,74
2018-04-01T05:00:43.511Z,74
2018-04-01T05:05:51.125Z,74
2018-04-01T05:10:44.677Z,74
2018-04-01T05:15:43.393Z,74
2018-04-01T05:20:55.326Z,74
2018-04-01T05:25:47.044Z,74
2018-04-01T05:30:43.366Z,74
2018-04-01T05:35:45.866Z,74
2018-04-01T05:40:43.151Z,74
2018-04-01T05:45:43.133Z,74
2018-04-01T05:50:44.929Z,74
2018-04-01T05:55:56.709Z,74
2018-04-01T06:00:44.403Z,74
2018-04-01T06:05:42.528Z,74
2018-04-01T06:10:46.694Z,73
2018-04-01T06:15:43.186Z,73
2018-04-01T06:20:43.323Z,73
2018-04-01T06:25:46.740Z,73
2018-04-01T06:30:56.679Z,72
2018-04-01T06:35:43.010Z,72
2018-04-01T06:41:06.739Z,72
2018-04-01T06:45:48.845Z,71
2018-04-01T06:50:43.008Z,71
2018-04-01T06:55:46.279Z,71
2018-04-01T07:00:43.475Z,71
2018-04-01T07:05:42.780Z,70
2018-04-01T07:10:47.174Z,70
2018-04-01T07:15:42.832Z,70
2018-04-01T07:20:42.908Z,70
2018-04-01T07:25:43.845Z,70
2018-04-01T07:30:45.365Z,69
2018-04-01T07:35:42.573Z,69
2018-04-01T07:40:42.914Z,69
2018-04-01T07:45:42.473Z,69
2018-04-01T07:50:43.038Z,69
2018-04-01T07:55:42.528Z,69
2018-04-01T08:00:43.208Z,69
2018-04-01T08:05:42.859Z,69
2018-04-01T08:10:43.064Z,69
2018-04-01T08:15:42.699Z,69
2018-04-01T08:20:42.443Z,70
2018-04-01T08:25:42.399Z,70
2018-04-01T08:30:45.152Z,70
2018-04-01T08:47:03.711Z,70
2018-04-01T08:47:34.446Z,70
2018-04-01T08:47:59.096Z,70
2018-04-01T08:52:37.013Z,69
2018-04-01T08:55:43.334Z,69
2018-04-01T09:00:43.252Z,69
2018-04-01T09:05:46.257Z,69
2018-04-01T09:12:24.147Z,69
2018-04-01T09:15:43.270Z,69
2018-04-01T09:20:46.639Z,69
2018-04-01T09:25:42.416Z,69
2018-04-01T09:30:43.675Z,69
2018-04-01T09:35:50.795Z,69
2018-04-01T09:40:43.615Z,69
2018-04-01T09:45:43.048Z,69
2018-04-01T09:50:46.191Z,69
2018-04-01T09:55:42.111Z,69
2018-04-01T10:00:42.953Z,69
2018-04-01T10:05:47.978Z,70
2018-04-01T10:10:42.817Z,70
2018-04-01T10:15:43.498Z,70
2018-04-01T10:20:47.036Z,70
2018-04-01T10:25:42.811Z,70
2018-04-01T10:45:18.786Z,70
2018-04-01T10:48:33.455Z,67
2018-04-01T10:48:40.924Z,67
2018-04-01T10:50:42.798Z,66
2018-04-01T10:55:42.635Z,64
2018-04-01T11:00:42.591Z,63
2018-04-01T11:07:56.208Z,62
2018-04-01T11:10:42.484Z,61
2018-04-01T11:15:42.716Z,60
2018-04-01T11:20:42.976Z,60
2018-04-01T11:25:42.351Z,60
2018-04-01T11:30:43.535Z,60
2018-04-01T11:35:42.707Z,60
2018-04-01T11:40:42.619Z,60
2018-04-01T11:45:44.171Z,58
2018-04-01T11:50:43.426Z,58
2018-04-01T11:59:37.110Z,58
2018-04-01T12:00:42.037Z,56
2018-04-01T12:05:44.449Z,55
2018-04-01T12:10:43.522Z,55
2018-04-01T12:15:42.375Z,54
2018-04-01T12:20:42.720Z,54
2018-04-01T12:26:24.491Z,52
2018-04-01T12:30:42.859Z,52
2018-04-01T12:35:42.451Z,51
2018-04-01T12:40:46.191Z,51
2018-04-01T12:45:42.871Z,51
2018-04-01T12:50:42.651Z,50
2018-04-01T12:55:44.713Z,50
2018-04-01T13:00:42.886Z,49
2018-04-01T13:05:42.526Z,49
2018-04-01T13:10:43.545Z,48
2018-04-01T13:15:43.877Z,48
2018-04-01T13:20:42.431Z,47
2018-04-01T13:25:42.297Z,47
2018-04-01T13:30:42.297Z,47
2018-04-01T13:35:42.077Z,47
2018-04-01T13:40:49.586Z,47
2018-04-01T13:45:56.806Z,47
2018-04-01T13:50:41.956Z,48
2018-04-01T13:55:41.945Z,48
2018-04-01T14:00:42.095Z,48
2018-04-01T14:05:43.489Z,49
2018-04-01T14:10:42.538Z,49
2018-04-01T14:15:42.872Z,49
2018-04-01T14:22:19.518Z,49
2018-04-01T14:25:42.916Z,50
2018-04-01T14:30:42.619Z,51
2018-04-01T14:35:42.848Z,52
2018-04-01T14:40:42.944Z,52
2018-04-01T14:45:42.408Z,53
2018-04-01T14:50:43.770Z,54
2018-04-01T14:55:41.820Z,54
2018-04-01T15:00:41.696Z,54
2018-04-01T15:05:41.763Z,55
2018-04-01T15:10:44.199Z,55
2018-04-01T15:15:41.957Z,55
2018-04-01T15:20:42.891Z,55
2018-04-01T15:25:42.618Z,55
2018-04-01T15:30:51.400Z,55
2018-04-01T15:35:42.723Z,55
2018-04-01T15:40:42.693Z,55
2018-04-01T15:45:46.407Z,54
2018-04-01T15:50:43.116Z,54
2018-04-01T15:55:42.096Z,54
2018-04-01T16:00:47.082Z,54
2018-04-01T16:05:41.692Z,54
2018-04-01T16:10:43.469Z,54
2018-04-01T16:15:48.454Z,54
2018-04-01T16:20:42.244Z,54
2018-04-01T16:25:42.342Z,54
2018-04-01T16:30:46.338Z,54
2018-04-01T16:35:43.230Z,54
2018-04-01T16:40:42.156Z,54
2018-04-01T16:45:44.245Z,54
2018-04-01T16:50:42.119Z,54
2018-04-01T16:55:53.005Z,54
2018-04-01T17:00:49.273Z,54
2018-04-01T17:05:42.873Z,54
2018-04-01T17:10:42.237Z,54
2018-04-01T17:15:50.331Z,54
2018-04-01T17:20:42.460Z,54
2018-04-01T17:25:41.886Z,53
2018-04-01T17:30:51.177Z,53
2018-04-01T17:35:43.112Z,52
2018-04-01T17:40:41.986Z,52
2018-04-01T17:45:47.888Z,52
2018-04-01T17:50:46.770Z,52
2018-04-01T17:55:41.761Z,52
2018-04-01T18:00:45.535Z,52
2018-04-01T18:05:42.049Z,53
2018-04-01T18:10:42.089Z,53
2018-04-01T18:15:45.696Z,54
2018-04-01T18:20:43.992Z,54
2018-04-01T18:25:41.656Z,54
2018-04-01T18:30:43.669Z,54
2018-04-01T18:35:41.607Z,55
2018-04-01T18:40:42.075Z,55
2018-04-01T18:45:47.217Z,55
2018-04-01T18:50:42.088Z,55
2018-04-01T18:55:41.810Z,55
2018-04-01T19:00:48.282Z,56
2018-04-01T19:05:41.900Z,56
2018-04-01T19:10:56.458Z,56
2018-04-01T19:15:52.727Z,57
2018-04-01T19:20:43.677Z,57
2018-04-01T19:25:41.902Z,57
2018-04-01T19:30:50.456Z,58
2018-04-01T19:35:43.699Z,58
2018-04-01T19:40:41.602Z,58
2018-04-01T19:45:45.364Z,57
2018-04-01T19:50:41.737Z,56
2018-04-01T19:55:43.358Z,55
2018-04-01T20:00:43.308Z,55
2018-04-01T20:05:42.786Z,56
2018-04-01T20:10:42.283Z,56
2018-04-01T20:15:49.425Z,57
2018-04-01T20:20:41.735Z,57
2018-04-01T20:25:42.788Z,58
2018-04-01T20:30:44.782Z,59
2018-04-01T20:35:41.353Z,59
2018-04-01T20:40:41.321Z,60
2018-04-01T20:45:41.712Z,61
2018-04-01T20:50:42.268Z,62
2018-04-01T20:55:41.466Z,62
2018-04-01T21:00:42.288Z,62
2018-04-01T21:05:41.523Z,62
2018-04-01T21:10:41.338Z,62
2018-04-01T21:15:41.825Z,63
2018-04-01T21:20:40.955Z,63
2018-04-01T21:25:41.082Z,63
2018-04-01T21:30:41.114Z,64
2018-04-01T21:35:41.322Z,64
2018-04-01T21:40:41.346Z,64
2018-04-01T21:45:41.832Z,64
2018-04-01T21:50:45.376Z,65
2018-04-01T21:55:41.817Z,65
2018-04-01T22:00:44.427Z,65
2018-04-01T22:05:48.698Z,66
2018-04-01T22:10:41.764Z,66
2018-04-01T22:15:41.188Z,66
2018-04-01T22:20:41.351Z,67
2018-04-01T22:25:42.020Z,67
2018-04-01T22:30:41.147Z,68
2018-04-01T22:35:41.021Z,68
2018-04-01T22:40:44.540Z,68
2018-04-01T22:45:41.567Z,69
2018-04-01T22:50:41.762Z,69
2018-04-01T22:55:45.901Z,69
2018-04-01T23:00:41.614Z,69
2018-04-01T23:05:41.418Z,70
2018-04-01T23:10:53.061Z,70
2018-04-01T23:15:41.459Z,70
2018-04-01T23:20:41.542Z,70
2018-04-01T23:26:07.552Z,70
2018-04-01T23:30:41.565Z,70
2018-04-01T23:35:43.838Z,71
2018-04-01T23:40:50.758Z,71
2018-04-01T23:45:41.466Z,71
2018-04-01T23:50:45.407Z,71
2018-04-01T23:55:52.305Z,71
